Time;durP1;ratioP1;P1;durP2;ratioP2;P2;SDS_P1;SDS_P2;PMS_P1;PMS_P2;Temp;Humidity;BMP_temperature;BMP_pressure;BME280_temperature;BME280_humidity;BME280_pressure;Samples;Min_cycle;Max_cycle;Signal;HPM_P1;HPM_P2
2021/04/21 00:01:39;;;;;;;32.78;19.48;;;;;;;;;;4898620;29;20040;-64
2021/04/21 00:04:06;;;;;;;33.03;20.02;;;;;;;;;;4897948;29;20501;-66
2021/04/21 00:06:33;;;;;;;31.10;19.33;;;;;;;;;;4898577;29;20029;-66
2021/04/21 00:09:01;;;;;;;31.00;19.23;;;;;;;;;;4898259;29;20536;-65
2021/04/21 00:11:28;;;;;;;32.92;19.08;;;;;;;;;;4898341;29;20039;-65
2021/04/21 00:13:54;;;;;;;29.45;18.92;;;;;;;;;;4898254;29;20033;-65
2021/04/21 00:16:20;;;;;;;33.50;19.27;;;;;;;;;;4898279;29;20033;-64
2021/04/21 00:18:47;;;;;;;32.45;20.17;;;;;;;;;;4897938;29;20028;-65
2021/04/21 00:21:13;;;;;;;27.95;18.38;;;;;;;;;;4898160;29;20056;-67
2021/04/21 00:23:40;;;;;;;29.70;18.58;;;;;;;;;;4898172;29;20044;-65
2021/04/21 00:26:08;;;;;;;33.15;19.77;;;;;;;;;;4898099;29;20084;-65
2021/04/21 00:28:35;;;;;;;34.47;19.88;;;;;;;;;;4898071;29;20041;-64
2021/04/21 00:31:04;;;;;;;34.83;18.48;;;;;;;;;;4898031;29;20027;-64
2021/04/21 00:33:30;;;;;;;33.63;19.15;;;;;;;;;;4897553;29;20025;-65
2021/04/21 00:35:57;;;;;;;33.88;20.02;;;;;;;;;;4897794;29;20516;-66
2021/04/21 00:38:23;;;;;;;33.33;19.83;;;;;;;;;;4897754;29;20029;-64
2021/04/21 00:41:07;;;;;;;33.42;19.83;;;;;;;;;;4897549;29;20029;-65
2021/04/21 00:43:36;;;;;;;33.35;19.90;;;;;;;;;;4897806;29;20053;-65
2021/04/21 00:46:08;;;;;;;32.75;19.42;;;;;;;;;;4897442;29;20127;-64
2021/04/21 00:48:55;;;;;;;30.55;18.55;;;;;;;;;;4897237;29;20030;-64
2021/04/21 00:51:27;;;;;;;32.45;19.20;;;;;;;;;;4897398;29;20039;-65
2021/04/21 00:54:12;;;;;;;31.00;19.05;;;;;;;;;;4897258;29;20097;-64
2021/04/21 00:56:50;;;;;;;33.13;19.88;;;;;;;;;;4897682;29;20568;-64
2021/04/21 00:59:35;;;;;;;33.47;18.98;;;;;;;;;;4897430;29;20047;-68
2021/04/21 01:02:02;;;;;;;31.77;19.35;;;;;;;;;;4897350;29;20464;-64
2021/04/21 01:04:28;;;;;;;31.80;19.42;;;;;;;;;;4896456;29;20466;-65
2021/04/21 01:06:55;;;;;;;31.10;19.55;;;;;;;;;;4897241;29;20048;-66
2021/04/21 01:09:23;;;;;;;33.28;19.50;;;;;;;;;;4897368;29;20033;-64
2021/04/21 01:11:50;;;;;;;30.38;19.15;;;;;;;;;;4898450;29;20040;-65
2021/04/21 01:14:18;;;;;;;31.48;19.48;;;;;;;;;;4882807;29;20382;-65
2021/04/21 01:16:45;;;;;;;31.70;20.50;;;;;;;;;;4897672;29;20056;-65
2021/04/21 01:19:18;;;;;;;33.55;19.92;;;;;;;;;;4896876;29;20035;-64
2021/04/21 01:21:50;;;;;;;30.20;19.13;;;;;;;;;;4896821;29;20038;-63
2021/04/21 01:24:17;;;;;;;29.50;18.77;;;;;;;;;;4897077;29;20029;-65
2021/04/21 01:27:01;;;;;;;30.02;18.08;;;;;;;;;;4897191;29;20029;-63
2021/04/21 01:29:27;;;;;;;29.73;18.38;;;;;;;;;;4897027;29;20036;-65
2021/04/21 01:31:54;;;;;;;28.92;18.38;;;;;;;;;;4897016;29;20684;-66
2021/04/21 01:34:22;;;;;;;31.83;18.75;;;;;;;;;;4896505;29;20491;-64
2021/04/21 01:36:48;;;;;;;31.13;18.73;;;;;;;;;;4880003;29;20049;-64
2021/04/21 01:39:15;;;;;;;28.65;18.55;;;;;;;;;;4896847;29;20469;-66
2021/04/21 01:41:43;;;;;;;30.95;19.05;;;;;;;;;;4896519;29;20056;-66
2021/04/21 01:44:13;;;;;;;30.58;19.05;;;;;;;;;;4897113;29;20033;-65
2021/04/21 01:46:41;;;;;;;30.80;18.35;;;;;;;;;;4896934;29;20045;-66
2021/04/21 01:49:27;;;;;;;30.75;19.23;;;;;;;;;;4896790;29;20029;-66
2021/04/21 01:52:02;;;;;;;32.10;19.15;;;;;;;;;;4896719;29;20025;-65
2021/04/21 01:54:29;;;;;;;31.42;19.90;;;;;;;;;;4896467;29;20032;-65
2021/04/21 01:56:57;;;;;;;34.95;20.25;;;;;;;;;;4896654;29;20032;-68
2021/04/21 01:59:35;;;;;;;31.23;18.88;;;;;;;;;;4896599;29;20070;-64
2021/04/21 02:02:04;;;;;;;32.70;19.88;;;;;;;;;;4896037;29;20060;-65
2021/04/21 02:04:33;;;;;;;33.58;19.13;;;;;;;;;;4895895;29;20063;-65
2021/04/21 02:07:01;;;;;;;33.25;19.17;;;;;;;;;;4896370;29;20037;-65
2021/04/21 02:09:27;;;;;;;30.13;19.23;;;;;;;;;;4896403;29;20028;-66
2021/04/21 02:11:57;;;;;;;31.85;19.02;;;;;;;;;;4896201;29;20042;-65
2021/04/21 02:14:33;;;;;;;30.63;18.77;;;;;;;;;;4896034;29;20485;-65
2021/04/21 02:17:11;;;;;;;31.73;18.40;;;;;;;;;;4896246;29;20043;-65
2021/04/21 02:19:50;;;;;;;29.75;18.60;;;;;;;;;;4896259;29;20040;-64
2021/04/21 02:22:36;;;;;;;30.85;19.17;;;;;;;;;;4895803;29;20032;-66
2021/04/21 02:25:10;;;;;;;30.48;18.58;;;;;;;;;;4878446;29;20048;-65
2021/04/21 02:27:55;;;;;;;31.27;17.52;;;;;;;;;;4895996;29;20031;-65
2021/04/21 02:30:27;;;;;;;30.55;19.58;;;;;;;;;;4896163;29;20032;-65
2021/04/21 02:33:11;;;;;;;30.23;17.88;;;;;;;;;;4895758;29;20586;-66
2021/04/21 02:35:40;;;;;;;32.53;19.30;;;;;;;;;;4895589;29;20046;-66
2021/04/21 02:38:24;;;;;;;30.63;18.08;;;;;;;;;;4896018;29;20061;-66
2021/04/21 02:40:58;;;;;;;30.48;18.23;;;;;;;;;;4895774;29;20031;-66
2021/04/21 02:43:29;;;;;;;29.55;19.02;;;;;;;;;;4895926;29;20044;-65
2021/04/21 02:46:05;;;;;;;31.80;18.88;;;;;;;;;;4896064;29;20032;-66
2021/04/21 02:48:44;;;;;;;28.77;18.38;;;;;;;;;;4895708;29;20033;-68
2021/04/21 02:51:20;;;;;;;31.77;18.77;;;;;;;;;;4895771;29;20036;-66
2021/04/21 02:53:46;;;;;;;30.45;17.98;;;;;;;;;;4895573;29;20020;-64
2021/04/21 02:56:23;;;;;;;35.22;20.23;;;;;;;;;;4895931;29;20040;-67
2021/04/21 02:59:07;;;;;;;32.13;18.38;;;;;;;;;;4895731;29;20028;-65
2021/04/21 03:01:33;;;;;;;34.00;19.52;;;;;;;;;;4895405;29;20035;-66
2021/04/21 03:04:04;;;;;;;35.38;18.80;;;;;;;;;;4895374;29;20036;-68
2021/04/21 03:06:33;;;;;;;32.15;18.27;;;;;;;;;;4895788;29;20025;-66
2021/04/21 03:09:07;;;;;;;32.17;18.25;;;;;;;;;;4895637;29;20075;-64
2021/04/21 03:11:33;;;;;;;31.23;18.38;;;;;;;;;;4895667;29;20162;-65
2021/04/21 03:14:08;;;;;;;34.83;18.75;;;;;;;;;;4895599;29;20048;-65
2021/04/21 03:16:38;;;;;;;32.70;18.95;;;;;;;;;;4895476;29;20173;-65
2021/04/21 03:19:08;;;;;;;30.38;18.13;;;;;;;;;;4895599;29;20025;-67
2021/04/21 03:21:39;;;;;;;31.52;19.00;;;;;;;;;;4895597;29;20024;-64
2021/04/21 03:24:17;;;;;;;29.02;18.33;;;;;;;;;;4895245;29;20747;-64
2021/04/21 03:26:46;;;;;;;33.65;19.42;;;;;;;;;;4895540;29;20032;-65
2021/04/21 03:29:14;;;;;;;35.50;18.90;;;;;;;;;;4899105;29;20036;-66
2021/04/21 03:31:42;;;;;;;29.75;18.20;;;;;;;;;;5052760;23;20009;-71
2021/04/21 03:34:11;;;;;;;33.47;19.58;;;;;;;;;;4917134;29;20076;-71
2021/04/21 03:36:38;;;;;;;32.75;18.77;;;;;;;;;;4917935;29;20033;-69
2021/04/21 03:39:05;;;;;;;29.42;18.45;;;;;;;;;;4917783;29;20487;-71
2021/04/21 03:41:31;;;;;;;32.80;19.42;;;;;;;;;;4901224;29;20063;-69
2021/04/21 03:43:58;;;;;;;31.52;19.27;;;;;;;;;;4900499;29;20092;-70
2021/04/21 03:46:24;;;;;;;33.28;18.60;;;;;;;;;;4917772;29;20193;-69
2021/04/21 03:48:50;;;;;;;29.25;17.77;;;;;;;;;;4900532;29;20025;-71
2021/04/21 03:51:17;;;;;;;32.58;18.90;;;;;;;;;;4917657;29;20032;-69
2021/04/21 03:53:44;;;;;;;31.98;19.17;;;;;;;;;;4917059;29;20472;-68
2021/04/21 03:56:12;;;;;;;32.97;19.00;;;;;;;;;;4900634;29;20186;-69
2021/04/21 03:58:38;;;;;;;30.55;18.33;;;;;;;;;;4917449;29;20030;-70
2021/04/21 04:01:15;;;;;;;32.95;18.60;;;;;;;;;;4900137;29;20044;-69
2021/04/21 04:03:42;;;;;;;29.95;18.88;;;;;;;;;;4917451;29;20036;-71
2021/04/21 04:06:11;;;;;;;30.02;17.95;;;;;;;;;;4900147;29;20020;-69
2021/04/21 04:08:56;;;;;;;28.95;17.42;;;;;;;;;;4900281;29;20123;-70
2021/04/21 04:11:27;;;;;;;33.17;18.40;;;;;;;;;;4917343;29;20020;-70
2021/04/21 04:13:57;;;;;;;30.27;17.60;;;;;;;;;;4917081;29;20039;-69
2021/04/21 04:16:24;;;;;;;31.25;17.95;;;;;;;;;;4916352;29;20060;-68
2021/04/21 04:18:51;;;;;;;32.35;18.38;;;;;;;;;;4917052;29;20103;-70
2021/04/21 04:21:19;;;;;;;31.33;17.98;;;;;;;;;;4917718;29;20038;-70
2021/04/21 04:23:46;;;;;;;28.35;17.48;;;;;;;;;;4917836;29;20385;-70
2021/04/21 04:26:12;;;;;;;29.33;18.38;;;;;;;;;;4917516;29;20380;-69
2021/04/21 04:28:39;;;;;;;30.45;17.40;;;;;;;;;;4917553;29;20091;-69
2021/04/21 04:31:07;;;;;;;33.55;18.65;;;;;;;;;;4917534;29;20399;-69
2021/04/21 04:33:34;;;;;;;35.30;19.17;;;;;;;;;;4900511;29;20157;-70
2021/04/21 04:36:00;;;;;;;29.67;17.58;;;;;;;;;;4898566;29;20075;-70
2021/04/21 04:38:26;;;;;;;32.38;18.38;;;;;;;;;;4898357;29;20072;-70
2021/04/21 04:40:53;;;;;;;43.72;24.35;;;;;;;;;;4898586;29;20033;-68
2021/04/21 04:43:20;;;;;;;32.60;18.17;;;;;;;;;;4898453;29;20485;-69
2021/04/21 04:45:50;;;;;;;41.15;18.38;;;;;;;;;;4898602;29;20033;-70
2021/04/21 04:48:18;;;;;;;40.10;20.55;;;;;;;;;;4898921;29;20372;-70
2021/04/21 04:50:45;;;;;;;41.30;21.48;;;;;;;;;;4898640;29;20490;-68
2021/04/21 04:53:12;;;;;;;41.03;20.00;;;;;;;;;;4898523;29;20029;-70
2021/04/21 04:55:38;;;;;;;32.38;18.60;;;;;;;;;;4898315;29;20040;-69
2021/04/21 04:58:05;;;;;;;37.03;18.50;;;;;;;;;;4898343;29;20051;-70
2021/04/21 05:00:31;;;;;;;34.22;18.92;;;;;;;;;;4898562;29;20032;-68
2021/04/21 05:03:16;;;;;;;36.47;19.25;;;;;;;;;;4898227;29;20036;-67
2021/04/21 05:05:44;;;;;;;38.30;18.73;;;;;;;;;;4896072;29;20384;-67
2021/04/21 05:08:16;;;;;;;37.00;18.95;;;;;;;;;;4897106;29;20025;-71
2021/04/21 05:10:55;;;;;;;32.65;19.27;;;;;;;;;;4897612;29;20932;-67
2021/04/21 05:13:22;;;;;;;34.60;18.02;;;;;;;;;;4898566;29;20021;-71
2021/04/21 05:15:51;;;;;;;33.80;18.65;;;;;;;;;;4898710;29;20053;-67
2021/04/21 05:18:26;;;;;;;32.47;18.50;;;;;;;;;;4897745;29;20035;-67
2021/04/21 05:20:55;;;;;;;29.52;17.45;;;;;;;;;;4897003;29;20480;-68
2021/04/21 05:23:24;;;;;;;31.90;19.15;;;;;;;;;;4877669;29;20028;-69
2021/04/21 05:26:02;;;;;;;26.30;17.00;;;;;;;;;;4891378;29;20024;-68
2021/04/21 05:28:55;;;;;;;26.55;17.98;;;;;;;;;;4894011;29;20472;-72
2021/04/21 05:31:39;;;;;;;29.70;17.92;;;;;;;;;;4882459;29;20048;-70
2021/04/21 05:34:08;;;;;;;29.98;18.30;;;;;;;;;;4897596;29;20051;-68
2021/04/21 05:36:52;;;;;;;31.17;18.95;;;;;;;;;;4897302;29;20511;-68
2021/04/21 05:39:37;;;;;;;28.80;18.38;;;;;;;;;;4898259;29;20028;-69
2021/04/21 05:42:19;;;;;;;30.63;18.17;;;;;;;;;;4897379;29;20039;-68
2021/04/21 05:45:04;;;;;;;38.08;21.33;;;;;;;;;;4897468;29;20033;-68
2021/04/21 05:47:48;;;;;;;30.02;18.27;;;;;;;;;;4897630;29;20032;-68
2021/04/21 05:50:29;;;;;;;29.30;18.52;;;;;;;;;;4897790;29;20476;-69
2021/04/21 05:53:14;;;;;;;29.13;18.90;;;;;;;;;;4899678;29;20029;-68
2021/04/21 05:55:40;;;;;;;27.08;18.00;;;;;;;;;;4898607;29;20570;-67
2021/04/21 05:58:42;;;;;;;28.15;18.02;;;;;;;;;;4897228;29;20114;-66
2021/04/21 06:01:23;;;;;;;28.10;17.40;;;;;;;;;;4859369;29;20113;-67
2021/04/21 06:03:53;;;;;;;27.45;17.80;;;;;;;;;;4858548;29;20042;-65
2021/04/21 06:06:19;;;;;;;26.88;17.42;;;;;;;;;;4858898;29;20025;-69
2021/04/21 06:08:46;;;;;;;27.73;17.55;;;;;;;;;;4855923;29;20509;-66
2021/04/21 06:11:19;;;;;;;30.98;18.13;;;;;;;;;;4857275;29;20046;-66
2021/04/21 06:13:46;;;;;;;28.98;17.30;;;;;;;;;;4857592;29;20734;-69
2021/04/21 06:16:17;;;;;;;30.10;18.02;;;;;;;;;;4860080;29;20098;-67
2021/04/21 06:18:44;;;;;;;27.75;17.88;;;;;;;;;;4867246;29;20149;-67
2021/04/21 06:21:20;;;;;;;29.13;18.17;;;;;;;;;;4857190;29;20116;-67
2021/04/21 06:23:46;;;;;;;26.50;17.33;;;;;;;;;;4857460;29;20134;-68
2021/04/21 06:26:18;;;;;;;29.17;17.63;;;;;;;;;;4857403;29;20081;-67
2021/04/21 06:28:44;;;;;;;26.30;16.75;;;;;;;;;;4857655;29;20072;-68
2021/04/21 06:31:13;;;;;;;26.58;16.55;;;;;;;;;;4860893;29;20049;-71
2021/04/21 06:33:41;;;;;;;27.67;15.35;;;;;;;;;;4856782;29;20068;-72
2021/04/21 06:36:08;;;;;;;26.40;15.45;;;;;;;;;;4893143;29;20048;-69
2021/04/21 06:38:35;;;;;;;19.00;12.80;;;;;;;;;;4897074;29;20062;-67
2021/04/21 06:41:01;;;;;;;21.13;13.40;;;;;;;;;;4896472;29;20028;-68
2021/04/21 06:43:29;;;;;;;21.90;12.60;;;;;;;;;;4896732;29;20024;-65
2021/04/21 06:45:55;;;;;;;21.38;12.60;;;;;;;;;;4895576;29;20052;-65
2021/04/21 06:48:29;;;;;;;17.58;11.75;;;;;;;;;;4895816;29;20391;-69
2021/04/21 06:50:55;;;;;;;18.73;11.88;;;;;;;;;;4896358;29;20349;-69
2021/04/21 06:53:29;;;;;;;19.50;11.90;;;;;;;;;;4897004;29;20036;-67
2021/04/21 06:55:56;;;;;;;18.67;11.23;;;;;;;;;;4894501;29;20036;-73
2021/04/21 06:58:22;;;;;;;20.05;11.75;;;;;;;;;;4896160;29;20029;-69
2021/04/21 07:00:49;;;;;;;21.10;12.18;;;;;;;;;;4898915;29;20032;-69
2021/04/21 07:03:18;;;;;;;17.00;10.60;;;;;;;;;;4917196;29;20024;-68
2021/04/21 07:05:45;;;;;;;16.85;10.63;;;;;;;;;;4919469;29;20494;-72
2021/04/21 07:08:16;;;;;;;17.08;10.23;;;;;;;;;;4918377;29;20035;-71
2021/04/21 07:10:45;;;;;;;15.80;10.55;;;;;;;;;;4918844;29;20031;-71
2021/04/21 07:13:20;;;;;;;17.00;11.00;;;;;;;;;;4919281;29;20580;-74
2021/04/21 07:15:47;;;;;;;18.92;11.68;;;;;;;;;;4918922;29;20484;-73
2021/04/21 07:18:18;;;;;;;18.45;12.07;;;;;;;;;;4919277;29;20032;-75
2021/04/21 07:20:44;;;;;;;17.80;11.25;;;;;;;;;;4918992;29;20035;-75
2021/04/21 07:23:12;;;;;;;16.13;10.75;;;;;;;;;;4918975;29;20035;-74
2021/04/21 07:25:39;;;;;;;18.58;11.55;;;;;;;;;;4918668;29;20028;-73
2021/04/21 07:28:06;;;;;;;19.83;11.43;;;;;;;;;;4916882;29;20028;-75
2021/04/21 07:30:33;;;;;;;17.05;11.27;;;;;;;;;;4915941;29;20032;-75
2021/04/21 07:32:59;;;;;;;16.98;11.52;;;;;;;;;;4917837;29;20063;-75
2021/04/21 07:35:26;;;;;;;20.92;11.63;;;;;;;;;;4918285;29;20411;-73
2021/04/21 07:37:54;;;;;;;18.67;11.63;;;;;;;;;;4918259;29;20033;-65
2021/04/21 07:40:23;;;;;;;15.10;10.32;;;;;;;;;;4918621;29;20032;-70
2021/04/21 07:42:50;;;;;;;13.43;9.00;;;;;;;;;;4918170;29;20020;-69
2021/04/21 07:45:20;;;;;;;16.35;10.18;;;;;;;;;;4918097;29;20099;-68
2021/04/21 07:47:46;;;;;;;12.85;9.07;;;;;;;;;;4918291;29;20028;-69
2021/04/21 07:50:12;;;;;;;15.32;9.30;;;;;;;;;;4917774;29;20028;-63
2021/04/21 07:52:38;;;;;;;16.23;9.50;;;;;;;;;;4918356;29;20024;-68
2021/04/21 07:55:09;;;;;;;17.85;10.48;;;;;;;;;;4918220;29;20052;-64
2021/04/21 07:57:36;;;;;;;17.30;10.38;;;;;;;;;;4918256;29;20036;-70
2021/04/21 08:00:05;;;;;;;18.50;10.52;;;;;;;;;;4918265;29;20031;-71
2021/04/21 08:02:33;;;;;;;17.95;10.77;;;;;;;;;;4918197;29;20036;-69
2021/04/21 08:05:00;;;;;;;16.33;10.77;;;;;;;;;;4918100;29;20564;-72
2021/04/21 08:07:35;;;;;;;17.23;10.88;;;;;;;;;;4918283;29;20047;-70
2021/04/21 08:10:01;;;;;;;18.38;11.82;;;;;;;;;;4917771;29;20526;-72
2021/04/21 08:12:31;;;;;;;17.38;11.60;;;;;;;;;;4917708;29;20099;-70
2021/04/21 08:14:59;;;;;;;21.65;13.75;;;;;;;;;;4917836;29;20492;-72
2021/04/21 08:17:25;;;;;;;20.00;12.48;;;;;;;;;;4918268;29;20032;-70
2021/04/21 08:19:56;;;;;;;18.30;12.15;;;;;;;;;;4917705;29;20548;-71
2021/04/21 08:22:23;;;;;;;18.90;12.07;;;;;;;;;;4918168;29;20028;-72
2021/04/21 08:24:49;;;;;;;15.35;10.82;;;;;;;;;;4917898;29;20381;-67
2021/04/21 08:27:16;;;;;;;13.85;9.52;;;;;;;;;;4918060;29;20095;-75
2021/04/21 08:29:43;;;;;;;18.73;9.77;;;;;;;;;;4917529;29;20032;-67
2021/04/21 08:32:10;;;;;;;14.88;9.80;;;;;;;;;;4917331;29;20059;-66
2021/04/21 08:34:36;;;;;;;13.65;9.27;;;;;;;;;;4917197;29;20028;-71
2021/04/21 08:37:03;;;;;;;14.80;9.00;;;;;;;;;;4917498;29;20033;-71
2021/04/21 08:39:29;;;;;;;12.80;9.35;;;;;;;;;;4917326;29;20066;-70
2021/04/21 08:41:57;;;;;;;14.90;8.52;;;;;;;;;;4917456;29;20433;-72
2021/04/21 08:44:25;;;;;;;13.45;8.70;;;;;;;;;;4917383;29;20067;-71
2021/04/21 08:46:51;;;;;;;12.38;8.55;;;;;;;;;;4917237;29;20107;-69
2021/04/21 08:49:17;;;;;;;14.30;9.27;;;;;;;;;;4917624;29;20099;-72
2021/04/21 08:51:44;;;;;;;18.98;9.88;;;;;;;;;;4914926;29;20028;-70
2021/04/21 08:54:12;;;;;;;17.05;9.98;;;;;;;;;;4916598;29;20084;-70
2021/04/21 08:56:40;;;;;;;16.70;10.57;;;;;;;;;;4915672;29;20032;-69
2021/04/21 08:59:07;;;;;;;17.20;10.45;;;;;;;;;;4915023;29;20107;-72
2021/04/21 09:01:34;;;;;;;16.65;9.82;;;;;;;;;;4914075;29;20032;-70
2021/04/21 09:04:00;;;;;;;16.85;10.73;;;;;;;;;;4913890;29;20067;-72
2021/04/21 09:06:26;;;;;;;16.75;10.75;;;;;;;;;;4915227;29;20024;-69
2021/04/21 09:08:52;;;;;;;17.02;10.80;;;;;;;;;;4915235;29;20052;-74
2021/04/21 09:11:19;;;;;;;13.73;10.15;;;;;;;;;;4914081;29;20388;-64
2021/04/21 09:13:48;;;;;;;16.50;10.52;;;;;;;;;;4915856;29;20024;-74
2021/04/21 09:16:15;;;;;;;16.52;10.20;;;;;;;;;;4915597;29;20036;-66
2021/04/21 09:18:41;;;;;;;16.15;10.48;;;;;;;;;;4908677;29;20136;-68
2021/04/21 09:21:16;;;;;;;17.02;10.65;;;;;;;;;;4895362;29;20040;-69
2021/04/21 09:23:42;;;;;;;15.25;9.52;;;;;;;;;;4896170;29;20040;-68
2021/04/21 09:26:15;;;;;;;13.68;9.85;;;;;;;;;;4894716;29;20492;-71
2021/04/21 09:28:42;;;;;;;17.38;10.43;;;;;;;;;;4896414;29;20040;-69
2021/04/21 09:31:13;;;;;;;16.25;10.18;;;;;;;;;;4896330;29;20111;-78
2021/04/21 09:33:39;;;;;;;17.38;10.32;;;;;;;;;;4910961;29;20110;-75
2021/04/21 09:36:05;;;;;;;17.27;10.95;;;;;;;;;;4915011;29;20036;-75
2021/04/21 09:38:31;;;;;;;16.55;10.88;;;;;;;;;;4915059;29;20031;-74
2021/04/21 09:41:01;;;;;;;16.33;10.35;;;;;;;;;;4914797;29;20036;-70
2021/04/21 09:43:27;;;;;;;19.40;11.25;;;;;;;;;;4915444;29;20065;-71
2021/04/21 09:45:54;;;;;;;16.60;10.60;;;;;;;;;;4915418;29;20036;-63
2021/04/21 09:48:24;;;;;;;16.73;12.18;;;;;;;;;;4914093;29;20505;-72
2021/04/21 09:50:59;;;;;;;19.63;12.73;;;;;;;;;;4914734;29;20107;-75
2021/04/21 09:53:25;;;;;;;15.43;11.65;;;;;;;;;;4914820;29;20039;-66
2021/04/21 09:55:58;;;;;;;17.15;11.90;;;;;;;;;;4914530;29;20039;-74
2021/04/21 09:58:30;;;;;;;19.80;12.27;;;;;;;;;;4914680;29;20028;-73
2021/04/21 10:00:57;;;;;;;17.73;11.75;;;;;;;;;;4914714;29;20032;-72
2021/04/21 10:03:23;;;;;;;23.13;11.55;;;;;;;;;;4914423;29;20485;-74
2021/04/21 10:05:49;;;;;;;17.52;11.98;;;;;;;;;;4914796;29;20039;-75
2021/04/21 10:08:23;;;;;;;16.80;11.15;;;;;;;;;;4914589;29;20024;-71
2021/04/21 10:11:02;;;;;;;16.50;10.55;;;;;;;;;;4913844;29;20475;-73
2021/04/21 10:13:48;;;;;;;15.43;10.52;;;;;;;;;;4914334;29;20080;-68
2021/04/21 10:16:15;;;;;;;16.90;10.75;;;;;;;;;;4914574;29;20044;-76
2021/04/21 10:18:42;;;;;;;17.40;11.38;;;;;;;;;;4914482;29;20497;-72
2021/04/21 10:21:09;;;;;;;14.68;10.82;;;;;;;;;;4912089;29;20028;-72
2021/04/21 10:23:35;;;;;;;16.83;11.38;;;;;;;;;;4914288;29;20032;-71
2021/04/21 10:26:11;;;;;;;17.63;11.35;;;;;;;;;;4913959;29;20028;-69
2021/04/21 10:28:38;;;;;;;20.17;11.10;;;;;;;;;;4914353;29;20511;-69
2021/04/21 10:31:08;;;;;;;16.52;11.38;;;;;;;;;;4914352;29;20044;-71
2021/04/21 10:33:34;;;;;;;17.88;12.38;;;;;;;;;;4913703;29;20060;-68
2021/04/21 10:36:01;;;;;;;19.35;11.77;;;;;;;;;;4913886;29;20091;-69
2021/04/21 10:38:27;;;;;;;18.02;12.45;;;;;;;;;;4914185;29;20024;-68
2021/04/21 10:41:12;;;;;;;15.38;11.35;;;;;;;;;;4913755;29;20358;-70
2021/04/21 10:43:39;;;;;;;17.23;12.00;;;;;;;;;;4914002;29;20503;-67
2021/04/21 10:46:05;;;;;;;18.17;12.18;;;;;;;;;;4914193;29;20032;-68
2021/04/21 10:48:39;;;;;;;15.70;11.50;;;;;;;;;;4914109;29;20045;-74
2021/04/21 10:51:25;;;;;;;17.33;12.25;;;;;;;;;;4914110;29;20020;-70
2021/04/21 10:53:51;;;;;;;16.27;11.50;;;;;;;;;;4900814;29;20091;-73
2021/04/21 10:56:21;;;;;;;17.65;11.50;;;;;;;;;;4913317;29;20492;-70
2021/04/21 10:58:54;;;;;;;15.75;11.10;;;;;;;;;;4914242;29;20150;-74
2021/04/21 11:01:29;;;;;;;16.98;11.93;;;;;;;;;;4913336;29;20594;-70
2021/04/21 11:03:55;;;;;;;17.35;11.75;;;;;;;;;;4913519;29;20511;-74
2021/04/21 11:06:40;;;;;;;15.77;10.70;;;;;;;;;;4913838;29;20035;-74
2021/04/21 11:09:06;;;;;;;19.13;12.25;;;;;;;;;;4913471;29;20080;-73
2021/04/21 11:11:35;;;;;;;18.70;11.23;;;;;;;;;;4913340;29;20031;-71
2021/04/21 11:14:02;;;;;;;15.10;10.18;;;;;;;;;;4914019;29;20100;-72
2021/04/21 11:16:34;;;;;;;14.70;10.15;;;;;;;;;;4913396;29;20035;-69
2021/04/21 11:19:00;;;;;;;;;;;;;;;;;;4912957;29;20028;-73
2021/04/21 11:21:31;;;;;;;12.73;8.65;;;;;;;;;;4911947;29;19943;-68
2021/04/21 11:24:03;;;;;;;13.48;9.18;;;;;;;;;;4912583;29;20357;-74
2021/04/21 11:26:32;;;;;;;13.75;8.85;;;;;;;;;;4913161;29;20027;-69
2021/04/21 11:29:01;;;;;;;12.82;8.75;;;;;;;;;;4913669;29;20031;-72
2021/04/21 11:31:48;;;;;;;12.30;8.90;;;;;;;;;;4913678;29;20047;-71
2021/04/21 11:34:14;;;;;;;14.77;8.70;;;;;;;;;;4876027;29;20056;-66
2021/04/21 11:36:43;;;;;;;12.27;8.55;;;;;;;;;;4876438;29;20029;-75
2021/04/21 11:39:12;;;;;;;11.35;8.32;;;;;;;;;;4874432;29;20409;-71
2021/04/21 11:41:41;;;;;;;11.05;8.23;;;;;;;;;;4875929;29;20029;-74
2021/04/21 11:44:08;;;;;;;11.25;7.55;;;;;;;;;;4874140;29;20036;-74
2021/04/21 11:47:02;;;;;;;11.70;7.53;;;;;;;;;;4876332;29;20049;-73
2021/04/21 11:49:47;;;;;;;9.10;7.22;;;;;;;;;;4859536;29;20101;-66
2021/04/21 11:52:33;;;;;;;11.10;8.07;;;;;;;;;;4878974;29;20128;-70
2021/04/21 11:54:59;;;;;;;12.40;7.85;;;;;;;;;;4871129;29;20049;-64
2021/04/21 11:57:25;;;;;;;10.90;7.43;;;;;;;;;;4879312;29;20033;-71
2021/04/21 11:59:51;;;;;;;9.68;7.10;;;;;;;;;;4879370;29;20104;-72
2021/04/21 12:02:17;;;;;;;11.95;7.03;;;;;;;;;;4879381;29;20037;-68
2021/04/21 12:04:43;;;;;;;10.63;7.43;;;;;;;;;;4878684;29;20029;-71
2021/04/21 12:07:09;;;;;;;11.02;7.88;;;;;;;;;;4878960;29;20115;-72
2021/04/21 12:09:36;;;;;;;11.43;7.70;;;;;;;;;;4878902;29;20085;-72
2021/04/21 12:12:02;;;;;;;10.77;7.63;;;;;;;;;;4878501;29;20029;-70
2021/04/21 12:14:28;;;;;;;10.35;7.90;;;;;;;;;;4879042;29;20100;-72
2021/04/21 12:16:56;;;;;;;11.25;7.63;;;;;;;;;;4877204;29;20037;-72
2021/04/21 12:19:27;;;;;;;10.43;7.13;;;;;;;;;;4878973;29;20366;-67
2021/04/21 12:21:54;;;;;;;10.98;7.32;;;;;;;;;;4879185;29;20029;-72
2021/04/21 12:24:21;;;;;;;10.35;7.15;;;;;;;;;;4878605;29;20033;-71
2021/04/21 12:26:47;;;;;;;11.95;7.00;;;;;;;;;;4878665;29;20401;-71
2021/04/21 12:29:16;;;;;;;10.48;6.93;;;;;;;;;;4878225;29;20488;-66
2021/04/21 12:31:43;;;;;;;12.02;7.68;;;;;;;;;;4877605;29;20037;-66
2021/04/21 12:34:27;;;;;;;9.48;7.50;;;;;;;;;;4897163;29;20060;-72
2021/04/21 12:36:53;;;;;;;10.27;6.97;;;;;;;;;;4895422;29;20112;-71
2021/04/21 12:39:23;;;;;;;11.05;7.68;;;;;;;;;;4896388;29;20095;-70
2021/04/21 12:41:52;;;;;;;11.95;7.72;;;;;;;;;;4896881;29;20035;-67
2021/04/21 12:44:18;;;;;;;10.00;7.38;;;;;;;;;;4897598;29;20376;-71
2021/04/21 12:46:47;;;;;;;9.68;7.68;;;;;;;;;;4897005;29;20028;-68
2021/04/21 12:49:13;;;;;;;10.40;7.65;;;;;;;;;;4897606;29;20039;-72
2021/04/21 12:51:45;;;;;;;9.73;7.05;;;;;;;;;;4896889;29;20028;-72
2021/04/21 12:54:29;;;;;;;10.52;7.35;;;;;;;;;;4896785;29;20035;-74
2021/04/21 12:56:55;;;;;;;9.77;7.18;;;;;;;;;;4897264;29;20188;-71
2021/04/21 12:59:21;;;;;;;10.18;7.05;;;;;;;;;;4893820;29;20025;-69
2021/04/21 13:01:47;;;;;;;12.07;6.32;;;;;;;;;;4896884;29;20393;-75
2021/04/21 13:04:19;;;;;;;10.05;6.65;;;;;;;;;;4897302;29;20128;-70
2021/04/21 13:06:46;;;;;;;9.82;6.05;;;;;;;;;;4896600;29;20020;-67
2021/04/21 13:09:15;;;;;;;9.63;5.80;;;;;;;;;;4897178;29;20029;-72
2021/04/21 13:11:42;;;;;;;8.38;5.25;;;;;;;;;;4897075;29;20471;-64
2021/04/21 13:14:09;;;;;;;12.00;6.65;;;;;;;;;;4896118;29;20445;-71
2021/04/21 13:16:38;;;;;;;9.90;5.93;;;;;;;;;;4896544;29;20036;-71
2021/04/21 13:19:25;;;;;;;9.98;5.95;;;;;;;;;;4896621;29;20036;-65
2021/04/21 13:21:58;;;;;;;9.93;6.15;;;;;;;;;;4896430;29;20388;-72
2021/04/21 13:24:25;;;;;;;10.07;6.00;;;;;;;;;;4897033;29;20112;-71
2021/04/21 13:26:55;;;;;;;9.57;6.30;;;;;;;;;;4896858;29;20104;-74
2021/04/21 13:29:31;;;;;;;9.40;6.95;;;;;;;;;;4896205;29;20084;-67
2021/04/21 13:32:10;;;;;;;10.57;6.25;;;;;;;;;;4896619;29;20033;-71
2021/04/21 13:34:36;;;;;;;7.30;5.70;;;;;;;;;;4895547;29;20051;-72
2021/04/21 13:37:03;;;;;;;9.52;6.85;;;;;;;;;;4896266;29;20044;-70
2021/04/21 13:39:29;;;;;;;8.95;6.57;;;;;;;;;;4896226;29;20528;-71
2021/04/21 13:41:55;;;;;;;12.15;7.05;;;;;;;;;;4895217;29;20044;-66
2021/04/21 13:44:22;;;;;;;12.93;6.80;;;;;;;;;;4896625;29;20035;-65
2021/04/21 13:46:48;;;;;;;9.60;6.70;;;;;;;;;;4896226;29;20129;-70
2021/04/21 13:49:16;;;;;;;10.68;7.70;;;;;;;;;;4895922;29;20505;-67
2021/04/21 13:51:43;;;;;;;11.85;8.18;;;;;;;;;;4896159;29;20043;-66
2021/04/21 13:54:09;;;;;;;8.30;6.38;;;;;;;;;;4895347;29;20059;-69
2021/04/21 13:56:35;;;;;;;9.02;6.95;;;;;;;;;;4894792;29;20040;-70
2021/04/21 13:59:01;;;;;;;11.70;5.88;;;;;;;;;;4894582;29;20021;-69
2021/04/21 14:01:27;;;;;;;7.43;5.80;;;;;;;;;;4893687;29;20040;-71
2021/04/21 14:03:53;;;;;;;8.45;5.97;;;;;;;;;;4894905;29;20132;-69
2021/04/21 14:06:20;;;;;;;9.80;6.60;;;;;;;;;;4895470;29;20085;-71
2021/04/21 14:08:46;;;;;;;8.77;5.85;;;;;;;;;;4878817;29;20115;-74
2021/04/21 14:11:14;;;;;;;9.70;6.65;;;;;;;;;;4895140;29;20032;-71
2021/04/21 14:13:40;;;;;;;9.70;6.82;;;;;;;;;;4895628;29;20032;-70
2021/04/21 14:16:06;;;;;;;8.65;6.13;;;;;;;;;;4896693;29;20044;-67
2021/04/21 14:18:32;;;;;;;8.32;6.00;;;;;;;;;;4905404;29;20020;-68
2021/04/21 14:20:58;;;;;;;8.80;6.15;;;;;;;;;;4904765;29;20044;-68
2021/04/21 14:23:25;;;;;;;10.88;6.32;;;;;;;;;;4901247;29;20028;-70
2021/04/21 14:25:51;;;;;;;7.55;5.90;;;;;;;;;;4905278;29;20028;-71
2021/04/21 14:28:17;;;;;;;8.93;6.03;;;;;;;;;;4905440;29;20079;-80
2021/04/21 14:30:43;;;;;;;11.00;6.13;;;;;;;;;;4900966;29;20036;-74
2021/04/21 14:33:09;;;;;;;8.48;6.00;;;;;;;;;;4900528;29;20115;-76
2021/04/21 14:35:35;;;;;;;7.45;5.93;;;;;;;;;;4893620;29;20037;-66
2021/04/21 14:38:01;;;;;;;8.30;6.47;;;;;;;;;;4894506;29;20088;-67